createdAt,value
2023-01-22T00:01:23.118Z,8.41
2023-01-22T00:03:52.491Z,8.41
2023-01-22T00:06:20.740Z,8.42
2023-01-22T00:08:49.405Z,8.44
2023-01-22T00:11:20.538Z,8.44
2023-01-22T00:13:48.648Z,8.44
2023-01-22T00:16:18.702Z,8.43
2023-01-22T00:18:46.842Z,8.44
2023-01-22T00:21:15.011Z,8.42
2023-01-22T00:23:43.250Z,8.43
2023-01-22T00:26:13.545Z,8.46
2023-01-22T00:28:45.295Z,8.45
2023-01-22T00:31:14.642Z,8.44
2023-01-22T00:33:43.132Z,8.44
2023-01-22T00:36:13.790Z,8.44
2023-01-22T00:38:41.999Z,8.45
2023-01-22T00:41:11.025Z,8.46
2023-01-22T00:43:40.717Z,8.47
2023-01-22T00:46:12.789Z,8.47
2023-01-22T00:48:41.291Z,8.48
2023-01-22T00:51:10.581Z,8.48
2023-01-22T00:53:41.356Z,8.48
2023-01-22T00:56:09.761Z,8.53
2023-01-22T00:58:38.947Z,8.56
2023-01-22T01:01:08.838Z,8.53
2023-01-22T01:03:38.653Z,8.51
2023-01-22T01:06:09.149Z,8.49
2023-01-22T01:08:38.994Z,8.47
2023-01-22T01:11:09.975Z,8.47
2023-01-22T01:13:43.131Z,8.47
2023-01-22T01:16:15.099Z,8.46
2023-01-22T01:18:45.288Z,8.47
2023-01-22T01:21:13.740Z,8.48
2023-01-22T01:23:42.836Z,8.48
2023-01-22T01:26:12.925Z,8.49
2023-01-22T01:28:45.560Z,8.50
2023-01-22T01:31:15.774Z,8.51
2023-01-22T01:33:46.396Z,8.54
2023-01-22T01:36:18.270Z,8.49
2023-01-22T01:38:48.313Z,8.50
2023-01-22T01:41:18.007Z,8.54
2023-01-22T01:43:46.101Z,8.55
2023-01-22T01:46:20.780Z,8.55
2023-01-22T01:48:54.197Z,8.55
2023-01-22T01:51:29.842Z,8.54
2023-01-22T01:54:00.669Z,8.54
2023-01-22T01:56:34.761Z,8.54
2023-01-22T01:59:05.653Z,8.61
2023-01-22T02:01:34.585Z,8.62
2023-01-22T02:04:04.356Z,8.65
2023-01-22T02:06:32.497Z,8.65
2023-01-22T02:09:01.377Z,8.65
2023-01-22T02:11:30.695Z,8.64
2023-01-22T02:14:02.951Z,8.63
2023-01-22T02:16:31.411Z,8.62
2023-01-22T02:18:59.690Z,8.65
2023-01-22T02:21:38.093Z,8.67
2023-01-22T02:24:08.856Z,8.67
2023-01-22T02:26:38.170Z,8.68
2023-01-22T02:29:08.065Z,8.71
2023-01-22T02:31:37.134Z,8.70
2023-01-22T02:34:06.076Z,8.74
2023-01-22T02:36:37.857Z,8.73
2023-01-22T02:39:06.431Z,8.70
2023-01-22T02:41:34.905Z,8.73
2023-01-22T02:44:03.308Z,8.73
2023-01-22T02:46:31.612Z,8.75
2023-01-22T02:48:59.883Z,8.77
2023-01-22T02:51:28.175Z,8.77
2023-01-22T02:53:57.716Z,8.76
2023-01-22T02:56:26.008Z,8.74
2023-01-22T02:58:54.152Z,8.75
2023-01-22T03:01:24.459Z,8.81
2023-01-22T03:03:54.310Z,8.81
2023-01-22T03:06:23.994Z,8.85
2023-01-22T03:08:54.978Z,8.85
2023-01-22T03:11:26.387Z,8.85
2023-01-22T03:14:12.119Z,8.85
2023-01-22T03:16:58.302Z,8.86
2023-01-22T03:19:44.029Z,8.90
2023-01-22T03:22:12.268Z,8.91
2023-01-22T03:24:40.512Z,8.86
2023-01-22T03:27:10.220Z,8.86
2023-01-22T03:29:39.327Z,8.87
2023-01-22T03:32:07.784Z,8.87
2023-01-22T03:34:36.130Z,8.85
2023-01-22T03:37:04.566Z,8.85
2023-01-22T03:39:33.762Z,8.86
2023-01-22T03:42:02.423Z,8.87
2023-01-22T03:44:32.065Z,8.86
2023-01-22T03:47:00.433Z,8.88
2023-01-22T03:49:28.496Z,8.86
2023-01-22T03:51:57.697Z,8.90
2023-01-22T03:54:28.311Z,8.92
2023-01-22T03:56:56.639Z,8.90
2023-01-22T03:59:24.748Z,8.91
2023-01-22T04:01:54.420Z,8.95
2023-01-22T04:04:23.004Z,8.94
2023-01-22T04:06:51.170Z,8.94
2023-01-22T04:09:19.401Z,8.94
2023-01-22T04:11:47.439Z,8.96
2023-01-22T04:14:15.737Z,8.95
2023-01-22T04:16:43.969Z,8.99
2023-01-22T04:19:14.983Z,8.97
2023-01-22T04:21:43.128Z,8.95
2023-01-22T04:24:11.352Z,8.97
2023-01-22T04:26:39.514Z,8.96
2023-01-22T04:29:07.707Z,8.95
2023-01-22T04:31:35.933Z,8.92
2023-01-22T04:34:04.235Z,8.92
2023-01-22T04:36:33.738Z,8.89
2023-01-22T04:39:01.929Z,8.88
2023-01-22T04:41:34.839Z,8.87
2023-01-22T04:44:02.948Z,8.82
2023-01-22T04:46:31.104Z,8.84
2023-01-22T04:48:59.276Z,8.82
2023-01-22T04:51:27.541Z,8.83
2023-01-22T04:53:57.150Z,8.79
2023-01-22T04:56:25.303Z,8.81
2023-01-22T04:58:53.921Z,8.80
2023-01-22T05:01:22.345Z,8.82
2023-01-22T05:03:50.637Z,8.80
2023-01-22T05:06:18.997Z,8.85
2023-01-22T05:08:47.113Z,8.86
2023-01-22T05:11:16.767Z,8.84
2023-01-22T05:13:44.901Z,8.82
2023-01-22T05:16:13.074Z,8.82
2023-01-22T05:18:41.206Z,8.81
2023-01-22T05:21:09.379Z,8.86
2023-01-22T05:23:37.589Z,8.85
2023-01-22T05:26:05.793Z,8.86
2023-01-22T05:28:35.273Z,8.87
2023-01-22T05:31:03.614Z,8.89
2023-01-22T05:33:32.715Z,8.89
2023-01-22T05:36:02.937Z,8.88
2023-01-22T05:38:31.574Z,8.89
2023-01-22T05:40:59.725Z,8.90
2023-01-22T05:43:27.903Z,8.90
2023-01-22T05:46:01.593Z,8.90
2023-01-22T05:48:29.849Z,8.90
2023-01-22T05:50:58.021Z,8.92
2023-01-22T05:53:26.243Z,8.90
2023-01-22T05:55:54.373Z,8.89
2023-01-22T05:58:22.411Z,8.84
2023-01-22T06:00:53.809Z,8.85
2023-01-22T06:03:23.388Z,8.82
2023-01-22T06:05:58.790Z,8.82
2023-01-22T06:08:27.834Z,8.84
2023-01-22T06:11:02.261Z,8.86
2023-01-22T06:13:30.696Z,8.92
2023-01-22T06:15:59.222Z,8.91
2023-01-22T06:18:28.938Z,8.86
2023-01-22T06:20:59.683Z,8.88
2023-01-22T06:23:28.121Z,8.91
2023-01-22T06:25:57.875Z,8.90
2023-01-22T06:28:26.373Z,8.92
2023-01-22T06:30:57.544Z,8.92
2023-01-22T06:33:25.946Z,8.91
2023-01-22T06:35:58.984Z,8.91
2023-01-22T06:38:27.131Z,8.93
2023-01-22T06:40:56.652Z,8.93
2023-01-22T06:43:25.541Z,8.95
2023-01-22T06:45:54.632Z,8.97
2023-01-22T06:48:22.903Z,8.99
2023-01-22T06:50:51.259Z,8.98
2023-01-22T06:53:20.788Z,8.99
2023-01-22T06:55:49.013Z,8.98
2023-01-22T06:58:17.288Z,8.98
2023-01-22T07:00:45.405Z,8.98
2023-01-22T07:03:16.210Z,8.96
2023-01-22T07:05:44.320Z,8.94
2023-01-22T07:08:15.735Z,8.95
2023-01-22T07:10:45.509Z,8.92
2023-01-22T07:13:16.075Z,8.90
2023-01-22T07:15:44.343Z,8.91
2023-01-22T07:18:14.534Z,8.87
2023-01-22T07:20:43.111Z,8.88
2023-01-22T07:23:11.561Z,8.90
2023-01-22T07:25:39.941Z,8.90
2023-01-22T07:28:09.543Z,8.90
2023-01-22T07:30:39.124Z,8.90
2023-01-22T07:33:07.389Z,8.90
2023-01-22T07:35:35.465Z,8.91
2023-01-22T07:38:03.618Z,8.91
2023-01-22T07:40:31.950Z,8.91
2023-01-22T07:43:00.210Z,8.92
2023-01-22T07:45:29.783Z,8.92
2023-01-22T07:47:59.548Z,8.93
2023-01-22T07:50:29.322Z,8.91
2023-01-22T07:52:58.056Z,8.93
2023-01-22T07:55:26.277Z,8.92
2023-01-22T07:57:59.349Z,8.93
2023-01-22T08:00:27.807Z,8.93
2023-01-22T08:02:57.439Z,8.88
2023-01-22T08:05:25.498Z,8.89
2023-01-22T08:07:53.714Z,8.91
2023-01-22T08:10:22.003Z,8.91
2023-01-22T08:12:50.254Z,8.94
2023-01-22T08:15:18.479Z,8.96
2023-01-22T08:17:50.011Z,8.94
2023-01-22T08:20:20.337Z,8.95
2023-01-22T08:22:48.671Z,8.94
2023-01-22T08:25:17.077Z,8.96
2023-01-22T08:27:45.283Z,8.96
2023-01-22T08:30:15.945Z,8.96
2023-01-22T08:32:45.552Z,8.95
2023-01-22T08:35:14.106Z,8.96
2023-01-22T08:37:45.068Z,8.95
2023-01-22T08:40:14.033Z,8.98
2023-01-22T08:42:42.671Z,9.00
2023-01-22T08:45:11.533Z,8.99
2023-01-22T08:47:39.663Z,8.99
2023-01-22T08:50:08.559Z,8.96
2023-01-22T08:52:36.772Z,8.99
2023-01-22T08:55:10.749Z,8.99
2023-01-22T08:57:38.932Z,8.99
2023-01-22T09:00:08.739Z,9.03
2023-01-22T09:02:36.807Z,9.06
2023-01-22T09:05:05.272Z,9.12
2023-01-22T09:07:33.351Z,9.13
2023-01-22T09:10:01.592Z,9.15
2023-01-22T09:12:31.150Z,9.16
2023-01-22T09:15:00.617Z,9.14
2023-01-22T09:17:28.885Z,9.14
2023-01-22T09:19:56.960Z,9.17
2023-01-22T09:22:25.106Z,9.19
2023-01-22T09:24:53.259Z,9.19
2023-01-22T09:27:21.593Z,9.21
2023-01-22T09:29:51.225Z,9.21
2023-01-22T09:32:19.360Z,9.21
2023-01-22T09:34:47.547Z,9.21
2023-01-22T09:37:16.107Z,9.21
2023-01-22T09:39:44.355Z,9.21
2023-01-22T09:42:18.857Z,9.21
2023-01-22T09:44:52.506Z,9.22
2023-01-22T09:47:28.699Z,9.23
2023-01-22T09:50:00.853Z,9.21
2023-01-22T09:52:30.950Z,9.21
2023-01-22T09:54:59.321Z,9.23
2023-01-22T09:57:31.929Z,9.25
2023-01-22T10:00:02.006Z,9.24
2023-01-22T10:02:34.825Z,9.27
2023-01-22T10:05:06.352Z,9.28
2023-01-22T10:07:37.117Z,9.27
2023-01-22T10:10:21.437Z,9.33
2023-01-22T10:12:55.101Z,9.39
2023-01-22T10:15:25.812Z,9.44
2023-01-22T10:17:56.589Z,9.46
2023-01-22T10:20:25.337Z,9.51
2023-01-22T10:22:56.675Z,9.54
2023-01-22T10:25:24.720Z,9.57
2023-01-22T10:28:01.117Z,9.56
2023-01-22T10:30:31.098Z,9.60
2023-01-22T10:33:01.149Z,9.62
2023-01-22T10:35:31.998Z,9.63
2023-01-22T10:38:01.290Z,9.67
2023-01-22T10:40:35.198Z,9.67
2023-01-22T10:43:06.054Z,9.69
2023-01-22T10:45:35.504Z,9.71
2023-01-22T10:48:24.874Z,9.69
2023-01-22T10:51:03.743Z,9.71
2023-01-22T10:53:34.462Z,9.72
2023-01-22T10:56:05.281Z,9.67
2023-01-22T10:58:35.971Z,9.69
2023-01-22T11:01:08.789Z,9.66
2023-01-22T11:03:38.831Z,9.67
2023-01-22T11:06:14.502Z,9.64
2023-01-22T11:08:51.230Z,9.61
2023-01-22T11:11:24.839Z,9.62
2023-01-22T11:13:57.950Z,9.62
2023-01-22T11:16:29.817Z,9.62
2023-01-22T11:19:01.096Z,9.62
2023-01-22T11:21:32.582Z,9.63
2023-01-22T11:24:04.512Z,9.60
2023-01-22T11:26:48.519Z,9.63
2023-01-22T11:29:39.083Z,9.64
2023-01-22T11:32:34.816Z,9.66
2023-01-22T11:35:14.167Z,9.64
2023-01-22T11:37:50.908Z,9.65
2023-01-22T11:40:27.148Z,9.66
2023-01-22T11:43:16.426Z,9.65
2023-01-22T11:46:10.751Z,9.64
2023-01-22T11:48:51.789Z,9.68
2023-01-22T11:51:28.642Z,9.72
2023-01-22T11:54:07.879Z,9.74
2023-01-22T11:57:03.551Z,9.79
2023-01-22T11:59:43.504Z,9.83
2023-01-22T12:02:32.269Z,9.89
2023-01-22T12:05:13.135Z,9.93
2023-01-22T12:07:55.860Z,9.97
2023-01-22T12:10:42.863Z,10.02
2023-01-22T12:13:26.855Z,10.06
2023-01-22T12:16:05.438Z,10.09
2023-01-22T12:19:19.901Z,10.07
2023-01-22T12:21:59.623Z,10.05
2023-01-22T12:24:33.099Z,10.02
2023-01-22T12:27:06.149Z,10.04
2023-01-22T12:29:38.188Z,10.02
2023-01-22T12:32:11.074Z,10.04
2023-01-22T12:34:48.153Z,10.04
2023-01-22T12:37:22.760Z,10.04
2023-01-22T12:40:20.123Z,10.02
2023-01-22T12:42:56.455Z,10.02
2023-01-22T12:45:34.939Z,10.01
2023-01-22T12:48:11.310Z,9.99
2023-01-22T12:50:50.422Z,10.01
2023-01-22T12:53:29.010Z,10.01
2023-01-22T12:56:03.271Z,10.05
2023-01-22T12:58:34.415Z,10.09
2023-01-22T13:01:06.490Z,10.10
2023-01-22T13:03:35.575Z,10.09
2023-01-22T13:06:05.879Z,10.12
2023-01-22T13:08:44.180Z,10.12
2023-01-22T13:11:14.818Z,10.12
2023-01-22T13:13:48.161Z,10.13
2023-01-22T13:16:23.201Z,10.12
2023-01-22T13:18:53.474Z,10.12
2023-01-22T13:21:27.184Z,10.14
2023-01-22T13:23:59.987Z,10.16
2023-01-22T13:26:30.706Z,10.15
2023-01-22T13:29:01.028Z,10.17
2023-01-22T13:31:29.387Z,10.19
2023-01-22T13:34:08.839Z,10.21
2023-01-22T13:36:39.834Z,10.24
2023-01-22T13:39:18.322Z,10.27
2023-01-22T13:41:48.759Z,10.30
2023-01-22T13:44:20.226Z,10.34
2023-01-22T13:46:48.551Z,10.34
2023-01-22T13:49:21.991Z,10.36
2023-01-22T13:51:51.081Z,10.39
2023-01-22T13:54:25.844Z,10.35
2023-01-22T13:56:54.163Z,10.37
2023-01-22T13:59:24.739Z,10.36
2023-01-22T14:01:53.301Z,10.38
2023-01-22T14:04:37.139Z,10.39
2023-01-22T14:07:06.078Z,10.39
2023-01-22T14:09:38.027Z,10.40
2023-01-22T14:12:15.594Z,10.41
2023-01-22T14:14:44.623Z,10.44
2023-01-22T14:17:26.927Z,10.46
2023-01-22T14:19:55.196Z,10.47
2023-01-22T14:22:23.769Z,10.49
2023-01-22T14:24:54.199Z,10.51
2023-01-22T14:27:23.003Z,10.47
2023-01-22T14:29:51.616Z,10.49
2023-01-22T14:32:19.829Z,10.49
2023-01-22T14:34:48.076Z,10.47
2023-01-22T14:37:17.330Z,10.44
2023-01-22T14:39:45.499Z,10.42
2023-01-22T14:42:15.067Z,10.41
2023-01-22T14:44:43.451Z,10.42
2023-01-22T14:47:11.727Z,10.44
2023-01-22T14:49:41.009Z,10.45
2023-01-22T14:52:09.274Z,10.44
2023-01-22T14:54:37.613Z,10.44
2023-01-22T14:57:05.769Z,10.44
2023-01-22T14:59:35.320Z,10.44
2023-01-22T15:02:03.467Z,10.45
2023-01-22T15:04:31.835Z,10.41
2023-01-22T15:07:00.046Z,10.40
2023-01-22T15:09:28.348Z,10.36
2023-01-22T15:11:56.429Z,10.35
2023-01-22T15:14:24.768Z,10.34
2023-01-22T15:16:54.417Z,10.31
2023-01-22T15:19:22.635Z,10.29
2023-01-22T15:21:50.895Z,10.28
2023-01-22T15:24:19.115Z,10.31
2023-01-22T15:26:47.348Z,10.32
2023-01-22T15:29:16.083Z,10.32
2023-01-22T15:31:44.370Z,10.34
2023-01-22T15:34:14.207Z,10.33
2023-01-22T15:36:42.505Z,10.32
2023-01-22T15:39:10.766Z,10.31
2023-01-22T15:41:38.949Z,10.31
2023-01-22T15:44:07.926Z,10.28
2023-01-22T15:46:37.354Z,10.27
2023-01-22T15:49:08.284Z,10.26
2023-01-22T15:51:38.272Z,10.28
2023-01-22T15:54:07.996Z,10.33
2023-01-22T15:56:39.219Z,10.38
2023-01-22T15:59:07.583Z,10.29
2023-01-22T16:01:36.262Z,10.27
2023-01-22T16:04:05.199Z,10.24
2023-01-22T16:06:35.283Z,10.24
2023-01-22T16:09:07.793Z,10.24
2023-01-22T16:11:36.728Z,10.23
2023-01-22T16:14:04.965Z,10.21
2023-01-22T16:16:36.377Z,10.20
2023-01-22T16:19:05.518Z,10.14
2023-01-22T16:21:33.702Z,10.12
2023-01-22T16:24:02.789Z,10.11
2023-01-22T16:26:34.228Z,10.07
2023-01-22T16:29:04.454Z,10.06
2023-01-22T16:31:35.094Z,10.07
2023-01-22T16:34:10.729Z,10.06
2023-01-22T16:36:39.846Z,10.05
2023-01-22T16:39:09.133Z,10.03
2023-01-22T16:41:38.930Z,10.04
2023-01-22T16:44:08.884Z,10.02
2023-01-22T16:46:39.472Z,10.00
2023-01-22T16:49:09.505Z,9.96
2023-01-22T16:51:39.326Z,9.95
2023-01-22T16:54:08.582Z,9.96
2023-01-22T16:56:38.153Z,9.95
2023-01-22T16:59:06.387Z,9.91
2023-01-22T17:01:34.710Z,9.91
2023-01-22T17:04:02.938Z,9.90
2023-01-22T17:06:34.272Z,9.92
2023-01-22T17:09:02.429Z,9.91
2023-01-22T17:11:30.662Z,9.89
2023-01-22T17:14:01.004Z,9.90
2023-01-22T17:16:29.340Z,9.91
2023-01-22T17:18:59.138Z,9.87
2023-01-22T17:21:28.749Z,9.86
2023-01-22T17:23:56.867Z,9.89
2023-01-22T17:26:25.035Z,9.86
2023-01-22T17:28:53.358Z,9.87
2023-01-22T17:31:24.164Z,9.84
2023-01-22T17:33:55.794Z,9.84
2023-01-22T17:36:25.374Z,9.83
2023-01-22T17:38:53.811Z,9.83
2023-01-22T17:41:23.963Z,9.84
2023-01-22T17:43:55.347Z,9.85
2023-01-22T17:46:25.588Z,9.82
2023-01-22T17:48:54.366Z,9.81
2023-01-22T17:51:26.652Z,9.79
2023-01-22T17:53:56.229Z,9.77
2023-01-22T17:56:26.725Z,9.78
2023-01-22T17:58:56.734Z,9.73
2023-01-22T18:01:30.257Z,9.71
2023-01-22T18:03:59.282Z,9.68
2023-01-22T18:06:27.773Z,9.64
2023-01-22T18:08:56.467Z,9.59
2023-01-22T18:11:27.872Z,9.59
2023-01-22T18:13:56.521Z,9.55
2023-01-22T18:16:28.479Z,9.56
2023-01-22T18:18:57.300Z,9.55
2023-01-22T18:21:25.787Z,9.56
2023-01-22T18:23:54.164Z,9.57
2023-01-22T18:26:23.955Z,9.57
2023-01-22T18:28:52.508Z,9.59
2023-01-22T18:31:22.871Z,9.64
2023-01-22T18:33:53.357Z,9.63
2023-01-22T18:36:23.547Z,9.68
2023-01-22T18:38:52.288Z,9.67
2023-01-22T18:41:23.950Z,9.69
2023-01-22T18:43:55.496Z,9.71
2023-01-22T18:46:24.810Z,9.73
2023-01-22T18:48:56.878Z,9.71
2023-01-22T18:51:25.639Z,9.70
2023-01-22T18:53:53.806Z,9.69
2023-01-22T18:56:22.060Z,9.72
2023-01-22T18:58:50.358Z,9.68
2023-01-22T19:01:21.848Z,9.66
2023-01-22T19:03:50.570Z,9.69
2023-01-22T19:06:22.925Z,9.69
2023-01-22T19:08:56.268Z,9.66
2023-01-22T19:11:25.504Z,9.68
2023-01-22T19:13:54.891Z,9.66
2023-01-22T19:16:24.063Z,9.65
2023-01-22T19:18:55.804Z,9.83
2023-01-22T19:21:26.648Z,9.72
2023-01-22T19:23:57.032Z,9.69
2023-01-22T19:26:28.364Z,9.68
2023-01-22T19:28:58.748Z,9.66
2023-01-22T19:31:29.036Z,9.66
2023-01-22T19:33:58.182Z,9.64
2023-01-22T19:36:29.776Z,9.64
2023-01-22T19:38:59.431Z,9.63
2023-01-22T19:41:28.174Z,9.63
2023-01-22T19:43:58.046Z,9.61
2023-01-22T19:46:27.775Z,9.63
2023-01-22T19:48:56.952Z,9.62
2023-01-22T19:51:26.978Z,9.63
2023-01-22T19:53:56.640Z,9.65
2023-01-22T19:56:26.706Z,9.72
2023-01-22T19:58:58.900Z,9.67
2023-01-22T20:01:27.570Z,9.64
2023-01-22T20:03:56.934Z,9.63
2023-01-22T20:06:25.520Z,9.62
2023-01-22T20:08:56.185Z,9.63
2023-01-22T20:11:26.091Z,9.65
2023-01-22T20:13:54.311Z,9.67
2023-01-22T20:16:25.348Z,9.69
2023-01-22T20:18:55.036Z,9.69
2023-01-22T20:21:24.298Z,9.68
2023-01-22T20:23:52.630Z,9.68
2023-01-22T20:26:22.604Z,9.69
2023-01-22T20:28:52.332Z,9.70
2023-01-22T20:31:23.414Z,9.71
2023-01-22T20:33:52.771Z,9.72
2023-01-22T20:36:23.177Z,9.73
2023-01-22T20:38:54.226Z,9.71
2023-01-22T20:41:23.998Z,9.72
2023-01-22T20:43:54.635Z,9.72
2023-01-22T20:46:25.085Z,9.77
2023-01-22T20:48:53.953Z,9.76
2023-01-22T20:51:24.787Z,9.76
2023-01-22T20:53:54.808Z,9.75
2023-01-22T20:56:25.563Z,9.76
2023-01-22T20:58:58.615Z,9.79
2023-01-22T21:01:27.649Z,9.79
2023-01-22T21:03:57.777Z,9.78
2023-01-22T21:06:28.514Z,9.78
2023-01-22T21:08:57.540Z,9.79
2023-01-22T21:11:27.337Z,9.80
2023-01-22T21:13:58.616Z,9.81
2023-01-22T21:16:29.739Z,9.81
2023-01-22T21:18:59.802Z,9.82
2023-01-22T21:21:31.007Z,9.81
2023-01-22T21:23:59.829Z,9.84
2023-01-22T21:26:30.013Z,9.83
2023-01-22T21:29:01.421Z,9.85
2023-01-22T21:31:30.406Z,9.85
2023-01-22T21:34:03.658Z,9.86
2023-01-22T21:36:33.078Z,9.87
2023-01-22T21:39:01.936Z,9.87
2023-01-22T21:41:30.266Z,9.89
2023-01-22T21:44:17.721Z,9.90
2023-01-22T21:46:48.289Z,9.89
2023-01-22T21:49:18.700Z,9.92
2023-01-22T21:51:49.474Z,9.92
2023-01-22T21:54:19.475Z,9.92
2023-01-22T21:56:47.689Z,9.92
2023-01-22T21:59:17.587Z,9.91
2023-01-22T22:01:46.543Z,9.92
2023-01-22T22:04:15.633Z,9.93
2023-01-22T22:06:43.812Z,9.94
2023-01-22T22:09:15.463Z,9.93
2023-01-22T22:11:44.124Z,9.94
2023-01-22T22:14:15.818Z,9.96
2023-01-22T22:16:45.920Z,9.97
2023-01-22T22:19:15.362Z,9.95
2023-01-22T22:21:43.617Z,9.98
2023-01-22T22:24:12.456Z,9.96
2023-01-22T22:26:41.548Z,9.97
2023-01-22T22:29:10.626Z,9.97
2023-01-22T22:31:39.453Z,9.99
2023-01-22T22:34:09.217Z,10.01
2023-01-22T22:36:37.382Z,10.01
2023-01-22T22:39:06.689Z,9.99
2023-01-22T22:41:37.203Z,10.00
2023-01-22T22:44:06.908Z,10.02
2023-01-22T22:46:37.906Z,10.04
2023-01-22T22:49:07.239Z,10.06
2023-01-22T22:51:38.769Z,10.04
2023-01-22T22:54:14.720Z,10.02
2023-01-22T22:56:44.642Z,10.04
2023-01-22T22:59:13.509Z,10.02
2023-01-22T23:01:41.770Z,10.00
2023-01-22T23:04:10.367Z,10.02
2023-01-22T23:06:40.318Z,10.05
2023-01-22T23:09:08.490Z,10.05
2023-01-22T23:11:37.979Z,10.06
2023-01-22T23:14:07.093Z,10.08
2023-01-22T23:16:37.279Z,10.09
2023-01-22T23:19:08.701Z,10.10
2023-01-22T23:21:41.078Z,10.10
2023-01-22T23:24:12.017Z,10.08
2023-01-22T23:26:41.668Z,10.09
2023-01-22T23:29:12.614Z,10.08
2023-01-22T23:31:41.141Z,10.09
2023-01-22T23:34:15.009Z,10.06
2023-01-22T23:36:45.374Z,10.05
2023-01-22T23:39:17.814Z,10.04
2023-01-22T23:41:46.380Z,10.04
2023-01-22T23:44:14.679Z,10.04
2023-01-22T23:46:43.206Z,10.01
2023-01-22T23:49:11.619Z,10.01
2023-01-22T23:51:42.298Z,10.03
2023-01-22T23:54:10.980Z,10.05
2023-01-22T23:56:40.638Z,10.06
2023-01-22T23:59:09.131Z,10.08
